Heaters, WV (26627)

8:57 PM EST en Febrero 27, 2015 (GMT -0500)
RAWS FLATWOODS WV US | Change Station
CLOSE
Current Station
Estación meteorológica personal
Location: Sutton, WV
Altura: 1267 ft
Estaciones meteorológicas cercanas

Alt 1267 ft 38.68 °N, 80.65 °W | Updated 40 minutes ago

Despejado
Despejado
12 ° F
Sensación térmica 12 ° F
N
1
Viento Variable Viento desde ENE
Gusts 3.0 mph

Hoy
Alta -- | Baja -- ° F
--% Posibilidad de precipitaciones
Ayer
Alta -- | Baja -- ° F
Precip. -- pul
6:58 AM 6:13 PM
Gibosa creciente, 73% visible
Presión 30.53 pul
Visibilidad 10.0 Millas
Nubes Despejado
Vientos helados 12 ° F
Punto de rocío 2 ° F
Humedad 62%
Precipitaciones 0.02 pul
Espesor de la nieve No disponible.
UV 0 de una escala de 12
Polen .60 de una escala de 12
Calidad del aire No disponible.
Flu Activity No disponible.
METAR KW22 280135Z AUTO 33006KT 10SM CLR M11/M17 A3053 RMK AO2

More Conditions Fewer Conditions

Presión 30.53 pul
Visibilidad 10.0 Millas
Nubes Despejado
Vientos helados 12 ° F
Punto de rocío 2 ° F
Humedad 62%
Precipitaciones 0.02 pul
Espesor de la nieve No disponible.
UV 0 de una escala de 12
Polen .60 de una escala de 12
Calidad del aire No disponible.
Flu Activity No disponible.
METAR KW22 280135Z AUTO 33006KT 10SM CLR M11/M17 A3053 RMK AO2

More Conditions Fewer Conditions

10-Day Weather Forecast

Almanac

Astronomía

Feb. 27, 2015 Salida Puesta
Hora real
Crepúsculo civil
Crepúsculo náutico
Crepúsculo astronómico
Luna
Horas de luz
Horas de luz
Tomorrow will be .
, % of the Moon is Illuminated

Extremos de hoy

Máximos del estado Bajos del estado

Community

WunderPhotos

Upload Photos

1,800,924 ¡fotos cargadas!

WunderBlogs® & News

Nearby

Calidad del aire

  Calidad del aire Índice AQ Contaminante
Not available.

Grosos de nieve

Estación Profundido Altura

Actividad de terremotos

Ciudad Distance Mag. Tiempo y dato
Magnitud mínima muestra es 2,5.

Temperaturas de aguas costeras

Lugar Temperatura

Estaciones meteorológicas cercanas